Wetterdaten: Woche 19.06.17 - 25.06.17 (KW25)
Datum Zeit Temperatur Luftfeuchte Luftdruck Niederschlag Windrichtung Sonnenschein Solar Wind
19.06.2017 00:00 16,3 C 67 % 1019,5 hPa 0,0 l/m O-NO 0,00 h 0 W/m 6,1 km/h (2 Bft)
19.06.2017 01:00 15,0 C 72 % 1019,2 hPa 0,0 l/m N 0,00 h 0 W/m 2,4 km/h (1 Bft)
19.06.2017 02:00 14,0 C 75 % 1018,9 hPa 0,0 l/m O-NO 0,00 h 0 W/m 2,9 km/h (1 Bft)
19.06.2017 03:00 13,3 C 78 % 1018,5 hPa 0,0 l/m N 0,00 h 0 W/m 0,8 km/h (0 Bft)
19.06.2017 04:00 12,7 C 80 % 1018,1 hPa 0,0 l/m N 0,00 h 0 W/m 0,0 km/h (0 Bft)
19.06.2017 05:00 12,1 C 82 % 1018,0 hPa 0,0 l/m N 0,42 h 16 W/m 0,0 km/h (0 Bft)
19.06.2017 06:00 12,3 C 83 % 1018,3 hPa 0,0 l/m O-NO 0,92 h 113 W/m 2,9 km/h (1 Bft)
19.06.2017 07:00 14,6 C 77 % 1018,5 hPa 0,0 l/m O-NO 0,75 h 259 W/m 4,7 km/h (1 Bft)
19.06.2017 08:00 17,1 C 70 % 1018,7 hPa 0,0 l/m N 1,00 h 453 W/m 2,3 km/h (1 Bft)
19.06.2017 09:00 19,5 C 65 % 1018,8 hPa 0,0 l/m O-NO 0,75 h 430 W/m 2,5 km/h (1 Bft)
19.06.2017 10:00 21,8 C 61 % 1018,5 hPa 0,0 l/m SO 0,83 h 596 W/m 5,6 km/h (1 Bft)
19.06.2017 11:00 23,1 C 61 % 1018,4 hPa 0,0 l/m S-SW 1,00 h 825 W/m 5,5 km/h (1 Bft)
19.06.2017 12:00 25,2 C 57 % 1018,1 hPa 0,0 l/m W-SW 1,00 h 879 W/m 10,5 km/h (2 Bft)
19.06.2017 13:00 26,5 C 54 % 1017,6 hPa 0,0 l/m SW 1,00 h 885 W/m 11,5 km/h (2 Bft)
19.06.2017 14:00 27,4 C 53 % 1016,9 hPa 0,0 l/m SW 0,92 h 815 W/m 12,1 km/h (2 Bft)
19.06.2017 15:00 28,2 C 49 % 1016,3 hPa 0,0 l/m SW 1,00 h 766 W/m 13,9 km/h (3 Bft)
19.06.2017 16:00 28,8 C 47 % 1015,8 hPa 0,0 l/m SW 1,00 h 648 W/m 13,8 km/h (3 Bft)
19.06.2017 17:00 29,1 C 47 % 1015,3 hPa 0,0 l/m SW 1,00 h 500 W/m 10,8 km/h (2 Bft)
19.06.2017 18:00 28,7 C 48 % 1014,9 hPa 0,0 l/m SW 1,00 h 346 W/m 8,4 km/h (2 Bft)
19.06.2017 19:00 27,7 C 52 % 1014,6 hPa 0,0 l/m SW 0,83 h 174 W/m 3,9 km/h (1 Bft)
19.06.2017 20:00 25,1 C 65 % 1014,5 hPa 0,0 l/m N 0,00 h 41 W/m 0,0 km/h (0 Bft)
19.06.2017 21:00 22,2 C 76 % 1014,6 hPa 0,0 l/m N 0,08 h 8 W/m 0,0 km/h (0 Bft)
19.06.2017 22:00 20,6 C 79 % 1014,9 hPa 0,0 l/m N 0,00 h 0 W/m 0,0 km/h (0 Bft)
19.06.2017 23:00 19,7 C 82 % 1015,1 hPa 0,0 l/m N 0,00 h 0 W/m 0,0 km/h (0 Bft)
20.06.2017 00:00 18,6 C 86 % 1015,1 hPa 0,0 l/m N 0,00 h 0 W/m 0,0 km/h (0 Bft)
20.06.2017 01:00 17,8 C 90 % 1014,8 hPa 0,0 l/m N 0,00 h 0 W/m 0,0 km/h (0 Bft)
20.06.2017 02:00 17,0 C 92 % 1014,7 hPa 0,0 l/m N 0,00 h 0 W/m 0,0 km/h (0 Bft)
20.06.2017 03:00 16,4 C 93 % 1014,6 hPa 0,0 l/m N 0,00 h 0 W/m 0,0 km/h (0 Bft)
20.06.2017 04:00 15,8 C 95 % 1014,5 hPa 0,0 l/m N 0,00 h 0 W/m 0,0 km/h (0 Bft)
20.06.2017 05:00 15,6 C 95 % 1014,9 hPa 0,0 l/m N 0,08 h 12 W/m 0,0 km/h (0 Bft)
20.06.2017 06:00 16,0 C 95 % 1014,9 hPa 0,0 l/m N 0,08 h 71 W/m 0,0 km/h (0 Bft)
20.06.2017 07:00 17,6 C 93 % 1015,0 hPa 0,0 l/m N 0,33 h 165 W/m 1,2 km/h (1 Bft)
20.06.2017 08:00 20,6 C 86 % 1015,0 hPa 0,0 l/m SW 0,75 h 338 W/m 7,0 km/h (2 Bft)
20.06.2017 09:00 23,7 C 77 % 1014,6 hPa 0,0 l/m S-SW 0,67 h 414 W/m 10,5 km/h (2 Bft)
20.06.2017 10:00 25,5 C 71 % 1014,5 hPa 0,0 l/m S-SW 0,50 h 501 W/m 11,2 km/h (2 Bft)
20.06.2017 11:00 27,3 C 65 % 1014,1 hPa 0,0 l/m S-SW 1,00 h 822 W/m 13,3 km/h (3 Bft)
20.06.2017 12:00 28,5 C 59 % 1013,9 hPa 0,0 l/m SW 1,00 h 873 W/m 18,5 km/h (3 Bft)
20.06.2017 13:00 29,7 C 52 % 1013,4 hPa 0,0 l/m S-SW 1,00 h 936 W/m 17,6 km/h (3 Bft)
20.06.2017 14:00 29,4 C 51 % 1013,0 hPa 0,0 l/m W-SW 0,42 h 461 W/m 14,2 km/h (3 Bft)
20.06.2017 15:00 27,7 C 58 % 1012,8 hPa 0,0 l/m N 0,25 h 326 W/m 6,8 km/h (2 Bft)
20.06.2017 16:00 29,4 C 53 % 1012,3 hPa 0,0 l/m SW 0,92 h 689 W/m 10,9 km/h (2 Bft)
20.06.2017 17:00 30,4 C 47 % 1011,9 hPa 0,0 l/m W-SW 1,00 h 518 W/m 17,4 km/h (3 Bft)
20.06.2017 18:00 29,6 C 50 % 1011,4 hPa 0,0 l/m W-SW 1,00 h 337 W/m 16,4 km/h (3 Bft)
20.06.2017 19:00 28,5 C 54 % 1011,3 hPa 0,0 l/m W-SW 0,67 h 168 W/m 9,0 km/h (2 Bft)
20.06.2017 20:00 26,4 C 62 % 1011,4 hPa 0,0 l/m W-SW 0,08 h 47 W/m 5,9 km/h (2 Bft)
20.06.2017 21:00 25,2 C 65 % 1012,1 hPa 0,0 l/m W 0,08 h 11 W/m 2,7 km/h (1 Bft)
20.06.2017 22:00 22,2 C 78 % 1012,8 hPa 5,8 l/m S-SW 0,00 h 0 W/m 15,5 km/h (3 Bft)
20.06.2017 23:00 17,7 C 91 % 1012,9 hPa 10,0 l/m SO 0,00 h 0 W/m 11,3 km/h (2 Bft)
21.06.2017 00:00 17,1 C 96 % 1012,7 hPa 0,2 l/m W-SW 0,00 h 0 W/m 1,2 km/h (1 Bft)
21.06.2017 01:00 16,9 C 97 % 1012,7 hPa 0,0 l/m N 0,00 h 0 W/m 0,0 km/h (0 Bft)
21.06.2017 02:00 16,6 C 98 % 1012,6 hPa 0,0 l/m N 0,00 h 0 W/m 0,0 km/h (0 Bft)
21.06.2017 03:00 16,3 C 98 % 1012,5 hPa 0,0 l/m N 0,00 h 0 W/m 0,0 km/h (0 Bft)
21.06.2017 04:00 16,0 C 99 % 1012,1 hPa 0,0 l/m N 0,00 h 0 W/m 0,0 km/h (0 Bft)
21.06.2017 05:00 15,6 C 99 % 1012,3 hPa 0,0 l/m N 0,42 h 17 W/m 0,0 km/h (0 Bft)
21.06.2017 06:00 16,1 C 99 % 1012,7 hPa 0,0 l/m N 0,92 h 94 W/m 0,0 km/h (0 Bft)
21.06.2017 07:00 17,5 C 99 % 1012,9 hPa 0,0 l/m N 0,75 h 214 W/m 0,0 km/h (0 Bft)
21.06.2017 08:00 20,0 C 96 % 1013,1 hPa 0,0 l/m N 1,00 h 391 W/m 0,9 km/h (0 Bft)
21.06.2017 09:00 22,9 C 84 % 1013,0 hPa 0,0 l/m S-SW 0,83 h 460 W/m 6,8 km/h (2 Bft)
21.06.2017 10:00 25,1 C 76 % 1012,7 hPa 0,0 l/m S 0,83 h 548 W/m 9,3 km/h (2 Bft)
21.06.2017 11:00 26,9 C 72 % 1012,7 hPa 0,0 l/m S 0,92 h 734 W/m 8,9 km/h (2 Bft)
21.06.2017 12:00 27,4 C 68 % 1012,6 hPa 0,0 l/m S-SW 0,50 h 520 W/m 9,3 km/h (2 Bft)
21.06.2017 13:00 29,0 C 58 % 1012,2 hPa 0,0 l/m S-SW 0,75 h 737 W/m 11,7 km/h (2 Bft)
21.06.2017 14:00 30,1 C 48 % 1011,7 hPa 0,0 l/m SW 0,92 h 840 W/m 12,6 km/h (3 Bft)
21.06.2017 15:00 30,2 C 47 % 1011,2 hPa 0,0 l/m W-SW 0,58 h 582 W/m 14,5 km/h (3 Bft)
21.06.2017 16:00 28,6 C 52 % 1011,0 hPa 0,0 l/m W 0,75 h 604 W/m 15,7 km/h (3 Bft)
21.06.2017 17:00 27,2 C 56 % 1011,1 hPa 0,0 l/m W 0,00 h 81 W/m 12,2 km/h (2 Bft)
21.06.2017 18:00 25,4 C 63 % 1011,3 hPa 0,0 l/m N 0,75 h 328 W/m 12,7 km/h (3 Bft)
21.06.2017 19:00 24,8 C 70 % 1011,3 hPa 0,0 l/m N 0,50 h 153 W/m 1,7 km/h (1 Bft)
21.06.2017 20:00 23,2 C 78 % 1011,4 hPa 0,0 l/m N 0,75 h 66 W/m 0,3 km/h (0 Bft)
21.06.2017 21:00 21,6 C 83 % 1012,2 hPa 0,0 l/m N 0,25 h 12 W/m 0,0 km/h (0 Bft)
21.06.2017 22:00 20,2 C 85 % 1013,0 hPa 0,0 l/m N 0,00 h 0 W/m 0,3 km/h (0 Bft)
21.06.2017 23:00 19,3 C 87 % 1013,1 hPa 0,0 l/m N 0,00 h 0 W/m 0,0 km/h (0 Bft)
22.06.2017 00:00 18,4 C 88 % 1013,1 hPa 0,0 l/m N 0,00 h 0 W/m 0,0 km/h (0 Bft)
22.06.2017 01:00 17,8 C 90 % 1013,1 hPa 0,0 l/m N 0,00 h 0 W/m 0,0 km/h (0 Bft)
22.06.2017 02:00 17,4 C 93 % 1012,9 hPa 0,0 l/m N 0,00 h 0 W/m 0,0 km/h (0 Bft)
22.06.2017 03:00 16,8 C 94 % 1012,8 hPa 0,0 l/m N 0,00 h 0 W/m 0,0 km/h (0 Bft)
22.06.2017 04:00 16,4 C 96 % 1012,9 hPa 0,0 l/m N 0,00 h 0 W/m 0,0 km/h (0 Bft)
22.06.2017 05:00 15,9 C 97 % 1013,1 hPa 0,0 l/m N 0,17 h 16 W/m 0,0 km/h (0 Bft)
22.06.2017 06:00 16,3 C 97 % 1013,6 hPa 0,0 l/m N 0,83 h 97 W/m 0,0 km/h (0 Bft)
22.06.2017 07:00 18,5 C 94 % 1013,7 hPa 0,0 l/m N 0,75 h 235 W/m 0,7 km/h (0 Bft)
22.06.2017 08:00 21,4 C 87 % 1013,5 hPa 0,0 l/m NO 1,00 h 421 W/m 3,6 km/h (1 Bft)
22.06.2017 09:00 24,4 C 80 % 1013,5 hPa 0,0 l/m S-SW 0,83 h 466 W/m 9,4 km/h (2 Bft)
22.06.2017 10:00 26,7 C 71 % 1013,4 hPa 0,0 l/m S 0,83 h 584 W/m 9,8 km/h (2 Bft)
22.06.2017 11:00 28,0 C 63 % 1013,0 hPa 0,0 l/m SW 1,00 h 806 W/m 11,6 km/h (2 Bft)
22.06.2017 12:00 29,2 C 52 % 1012,8 hPa 0,0 l/m W-SW 1,00 h 864 W/m 13,7 km/h (3 Bft)
22.06.2017 13:00 30,2 C 47 % 1012,4 hPa 0,0 l/m W-SW 1,00 h 869 W/m 14,8 km/h (3 Bft)
22.06.2017 14:00 31,1 C 45 % 1011,9 hPa 0,0 l/m SW 1,00 h 851 W/m 16,0 km/h (3 Bft)
22.06.2017 15:00 31,4 C 46 % 1011,2 hPa 0,0 l/m W-SW 1,00 h 744 W/m 15,8 km/h (3 Bft)
22.06.2017 16:00 31,3 C 46 % 1011,1 hPa 0,0 l/m W-SW 1,00 h 555 W/m 16,4 km/h (3 Bft)
22.06.2017 17:00 30,2 C 51 % 1010,3 hPa 0,0 l/m W-SW 0,42 h 305 W/m 10,9 km/h (2 Bft)
22.06.2017 18:00 29,6 C 55 % 1009,8 hPa 0,0 l/m W-SW 0,75 h 331 W/m 7,9 km/h (2 Bft)
22.06.2017 19:00 29,2 C 53 % 1009,6 hPa 0,0 l/m W-SW 0,67 h 156 W/m 7,1 km/h (2 Bft)
22.06.2017 20:00 26,4 C 59 % 1010,0 hPa 0,0 l/m W-SW 0,00 h 29 W/m 8,0 km/h (2 Bft)
22.06.2017 21:00 25,2 C 62 % 1010,2 hPa 0,0 l/m W-SW 0,08 h 10 W/m 12,0 km/h (2 Bft)
22.06.2017 22:00 25,2 C 61 % 1010,1 hPa 0,0 l/m W-SW 0,00 h 0 W/m 17,3 km/h (3 Bft)
22.06.2017 23:00 24,7 C 65 % 1010,3 hPa 0,0 l/m W-SW 0,00 h 0 W/m 14,5 km/h (3 Bft)
23.06.2017 00:00 23,2 C 72 % 1010,7 hPa 0,0 l/m SW 0,00 h 0 W/m 14,2 km/h (3 Bft)
23.06.2017 01:00 22,4 C 75 % 1010,4 hPa 0,0 l/m SW 0,00 h 0 W/m 11,8 km/h (2 Bft)
23.06.2017 02:00 23,5 C 70 % 1010,5 hPa 0,0 l/m W-SW 0,00 h 0 W/m 15,2 km/h (3 Bft)
23.06.2017 03:00 23,2 C 70 % 1010,5 hPa 0,0 l/m W-SW 0,00 h 0 W/m 14,6 km/h (3 Bft)
23.06.2017 04:00 22,7 C 72 % 1010,4 hPa 0,0 l/m W-SW 0,00 h 0 W/m 13,4 km/h (3 Bft)
23.06.2017 05:00 21,9 C 75 % 1010,7 hPa 0,0 l/m W-SW 0,08 h 13 W/m 11,4 km/h (2 Bft)
23.06.2017 06:00 21,9 C 73 % 1010,9 hPa 0,0 l/m W-SW 0,42 h 73 W/m 11,4 km/h (2 Bft)
23.06.2017 07:00 22,7 C 69 % 1011,4 hPa 0,0 l/m W-SW 0,33 h 154 W/m 10,2 km/h (2 Bft)
23.06.2017 08:00 23,7 C 68 % 1011,8 hPa 0,0 l/m W 0,08 h 211 W/m 8,0 km/h (2 Bft)
23.06.2017 09:00 25,0 C 65 % 1012,1 hPa 0,0 l/m W 0,17 h 286 W/m 13,6 km/h (3 Bft)
23.06.2017 10:00 26,9 C 60 % 1012,3 hPa 0,0 l/m W-SW 0,83 h 582 W/m 19,8 km/h (4 Bft)
23.06.2017 11:00 28,0 C 58 % 1012,1 hPa 0,0 l/m W-SW 0,92 h 730 W/m 23,9 km/h (4 Bft)
23.06.2017 12:00 28,3 C 56 % 1011,9 hPa 0,0 l/m W 0,33 h 447 W/m 21,3 km/h (4 Bft)
23.06.2017 13:00 29,1 C 53 % 1011,8 hPa 0,0 l/m W 0,58 h 605 W/m 21,8 km/h (4 Bft)
23.06.2017 14:00 30,0 C 50 % 1011,4 hPa 0,0 l/m W 1,00 h 850 W/m 24,0 km/h (4 Bft)
23.06.2017 15:00 30,4 C 48 % 1011,3 hPa 0,0 l/m W-NW 1,00 h 734 W/m 24,8 km/h (4 Bft)
23.06.2017 16:00 30,5 C 45 % 1011,2 hPa 0,0 l/m W-NW 1,00 h 604 W/m 23,6 km/h (4 Bft)
23.06.2017 17:00 30,5 C 44 % 1011,1 hPa 0,0 l/m W-NW 1,00 h 483 W/m 21,0 km/h (4 Bft)
23.06.2017 18:00 29,9 C 45 % 1011,1 hPa 0,0 l/m W-NW 1,00 h 336 W/m 24,3 km/h (4 Bft)
23.06.2017 19:00 28,6 C 50 % 1011,5 hPa 0,0 l/m W-NW 1,00 h 192 W/m 19,7 km/h (3 Bft)
23.06.2017 20:00 26,4 C 57 % 1012,1 hPa 0,0 l/m NW 0,08 h 59 W/m 12,5 km/h (3 Bft)
23.06.2017 21:00 24,1 C 62 % 1012,8 hPa 0,0 l/m W-NW 0,25 h 14 W/m 6,0 km/h (2 Bft)
23.06.2017 22:00 21,3 C 74 % 1013,8 hPa 0,0 l/m N 0,00 h 0 W/m 0,8 km/h (0 Bft)
23.06.2017 23:00 19,4 C 81 % 1014,1 hPa 0,0 l/m N 0,00 h 0 W/m 0,0 km/h (0 Bft)
24.06.2017 00:00 18,2 C 85 % 1014,4 hPa 0,0 l/m N 0,00 h 0 W/m 0,0 km/h (0 Bft)
24.06.2017 01:00 17,6 C 87 % 1014,7 hPa 0,0 l/m N 0,00 h 0 W/m 0,0 km/h (0 Bft)
24.06.2017 02:00 17,4 C 87 % 1014,8 hPa 0,0 l/m N 0,00 h 0 W/m 0,3 km/h (0 Bft)
24.06.2017 03:00 17,9 C 83 % 1014,6 hPa 0,0 l/m NW 0,00 h 0 W/m 3,2 km/h (1 Bft)
24.06.2017 04:00 17,4 C 87 % 1014,3 hPa 0,0 l/m N 0,00 h 0 W/m 0,0 km/h (0 Bft)
24.06.2017 05:00 17,6 C 87 % 1014,3 hPa 0,0 l/m N 0,00 h 12 W/m 0,0 km/h (0 Bft)
24.06.2017 06:00 18,5 C 84 % 1014,6 hPa 0,0 l/m N 0,25 h 62 W/m 0,0 km/h (0 Bft)
24.06.2017 07:00 18,8 C 86 % 1014,7 hPa 0,0 l/m N 0,00 h 79 W/m 0,5 km/h (0 Bft)
24.06.2017 08:00 19,3 C 81 % 1015,1 hPa 0,0 l/m NW 0,00 h 133 W/m 0,9 km/h (0 Bft)
24.06.2017 09:00 20,2 C 75 % 1014,9 hPa 0,0 l/m NW 0,08 h 220 W/m 1,3 km/h (1 Bft)
24.06.2017 10:00 20,7 C 75 % 1014,9 hPa 0,0 l/m S-SW 0,33 h 384 W/m 7,8 km/h (2 Bft)
24.06.2017 11:00 21,5 C 77 % 1014,6 hPa 0,0 l/m SW 0,33 h 470 W/m 14,9 km/h (3 Bft)
24.06.2017 12:00 22,6 C 74 % 1014,3 hPa 0,0 l/m SW 0,75 h 670 W/m 16,4 km/h (3 Bft)
24.06.2017 13:00 23,1 C 75 % 1014,0 hPa 0,0 l/m S-SW 0,25 h 444 W/m 15,2 km/h (3 Bft)
24.06.2017 14:00 23,2 C 77 % 1013,4 hPa 0,0 l/m S-SW 0,00 h 302 W/m 14,5 km/h (3 Bft)
24.06.2017 15:00 24,6 C 72 % 1012,8 hPa 0,0 l/m S-SW 0,50 h 549 W/m 13,6 km/h (3 Bft)
24.06.2017 16:00 25,2 C 68 % 1012,2 hPa 0,0 l/m W-SW 0,25 h 404 W/m 10,5 km/h (2 Bft)
24.06.2017 17:00 25,1 C 66 % 1012,0 hPa 0,0 l/m W-SW 0,33 h 320 W/m 16,6 km/h (3 Bft)
24.06.2017 18:00 24,8 C 67 % 1011,8 hPa 0,0 l/m W-SW 0,67 h 320 W/m 18,1 km/h (3 Bft)
24.06.2017 19:00 23,9 C 67 % 1011,9 hPa 0,0 l/m W-SW 0,83 h 177 W/m 22,5 km/h (4 Bft)
24.06.2017 20:00 22,5 C 71 % 1012,0 hPa 0,0 l/m W-SW 0,00 h 46 W/m 16,4 km/h (3 Bft)
24.06.2017 21:00 20,8 C 77 % 1012,3 hPa 0,0 l/m W-SW 0,08 h 10 W/m 9,7 km/h (2 Bft)
24.06.2017 22:00 19,5 C 82 % 1012,8 hPa 0,0 l/m W-SW 0,00 h 0 W/m 9,3 km/h (2 Bft)
24.06.2017 23:00 18,9 C 84 % 1013,0 hPa 0,0 l/m W-SW 0,00 h 0 W/m 3,6 km/h (1 Bft)
25.06.2017 00:00 17,9 C 87 % 1012,7 hPa 0,0 l/m N 0,00 h 0 W/m 0,0 km/h (0 Bft)
25.06.2017 01:00 17,1 C 91 % 1012,4 hPa 0,0 l/m N 0,00 h 0 W/m 0,0 km/h (0 Bft)
25.06.2017 02:00 17,1 C 92 % 1012,1 hPa 0,0 l/m N 0,00 h 0 W/m 0,0 km/h (0 Bft)
25.06.2017 03:00 18,0 C 89 % 1012,1 hPa 0,0 l/m W-SW 0,00 h 0 W/m 5,9 km/h (2 Bft)
25.06.2017 04:00 18,8 C 82 % 1011,8 hPa 0,0 l/m W 0,00 h 0 W/m 11,4 km/h (2 Bft)
25.06.2017 05:00 18,8 C 82 % 1011,6 hPa 0,0 l/m W-SW 0,00 h 8 W/m 11,2 km/h (2 Bft)
25.06.2017 06:00 18,7 C 81 % 1012,0 hPa 0,0 l/m W 0,00 h 18 W/m 7,6 km/h (2 Bft)
25.06.2017 07:00 18,4 C 81 % 1012,1 hPa 0,0 l/m W 0,00 h 41 W/m 7,9 km/h (2 Bft)
25.06.2017 08:00 17,7 C 81 % 1012,6 hPa 0,2 l/m W 0,00 h 51 W/m 8,4 km/h (2 Bft)
25.06.2017 09:00 16,6 C 90 % 1012,8 hPa 0,4 l/m W 0,00 h 149 W/m 4,8 km/h (1 Bft)
25.06.2017 10:00 17,8 C 85 % 1012,8 hPa 0,0 l/m W 0,08 h 267 W/m 3,6 km/h (1 Bft)
25.06.2017 11:00 19,8 C 74 % 1012,8 hPa 0,2 l/m W-SW 0,58 h 641 W/m 12,5 km/h (3 Bft)
25.06.2017 12:00 21,0 C 69 % 1012,8 hPa 0,0 l/m W-SW 0,25 h 435 W/m 20,2 km/h (4 Bft)
25.06.2017 13:00 20,9 C 73 % 1012,9 hPa 0,0 l/m SW 0,25 h 423 W/m 22,1 km/h (4 Bft)
25.06.2017 14:00 21,9 C 72 % 1012,5 hPa 0,0 l/m W-SW 0,42 h 602 W/m 21,4 km/h (4 Bft)
25.06.2017 15:00 22,4 C 68 % 1011,9 hPa 0,0 l/m SW 0,25 h 358 W/m 17,8 km/h (3 Bft)
25.06.2017 16:00 22,1 C 64 % 1011,5 hPa 0,0 l/m W-SW 0,17 h 174 W/m 15,4 km/h (3 Bft)
25.06.2017 17:00 22,3 C 61 % 1011,5 hPa 0,0 l/m W-SW 0,25 h 222 W/m 14,9 km/h (3 Bft)
25.06.2017 18:00 22,1 C 58 % 1011,4 hPa 0,0 l/m W-NW 0,00 h 148 W/m 12,9 km/h (3 Bft)
25.06.2017 19:00 21,4 C 63 % 1011,4 hPa 0,0 l/m W-NW 0,00 h 37 W/m 5,9 km/h (2 Bft)
25.06.2017 20:00 20,9 C 68 % 1011,6 hPa 0,0 l/m N 0,00 h 42 W/m 2,7 km/h (1 Bft)
25.06.2017 21:00 19,9 C 68 % 1012,0 hPa 0,0 l/m W 0,00 h 9 W/m 3,9 km/h (1 Bft)
25.06.2017 22:00 18,7 C 71 % 1012,5 hPa 0,0 l/m W 0,00 h 0 W/m 1,6 km/h (1 Bft)
25.06.2017 23:00 18,0 C 73 % 1012,6 hPa 0,0 l/m W 0,00 h 0 W/m 3,2 km/h (1 Bft)
Min-Datum _ 19.06.17 22.06.17 22.06.17 - - - - 19.06.17
_ Min-Zeit 06:10 14:55 19:20 - - - - 00:20
Minimum _ 11,7 C 42 % 1009,4 hPa - - - - 0,0 km/h (0 Bft)
Max-Datum _ 22.06.17 21.06.17 19.06.17 20.06.17 - 19.06.17 24.06.17 20.06.17
_ Max-Zeit 15:05 03:45 00:00 23:10 - 05:35 12:50 23:10
Maximum _ 31,7 C 99 % 1019,6 hPa 10,0 l/m - 0,08 h 1095 W/m 45,1 km/h
W (6 Bft)
Durchschnitt _ 22,3 C 72 % 1013,2 hPa #16,8 l/m W-SW #64:05 h 359 W/m 8,3 km/h (2 Bft)